sensor_id;sensor_type;location;lat;lon;timestamp;pressure;altitude;pressure_sealevel;temperature;humidity
37238;BME280;23129;49.662;8.448;2023-04-28T00:01:48;100522.25;;;14.23;nan
37238;BME280;23129;49.662;8.448;2023-04-28T00:04:17;100526.38;;;14.08;nan
37238;BME280;23129;49.662;8.448;2023-04-28T00:06:46;100515.47;;;13.96;nan
37238;BME280;23129;49.662;8.448;2023-04-28T00:09:15;100510.59;;;13.86;nan
37238;BME280;23129;49.662;8.448;2023-04-28T00:11:43;100523.28;;;13.77;nan
37238;BME280;23129;49.662;8.448;2023-04-28T00:14:13;100528.00;;;13.68;nan
37238;BME280;23129;49.662;8.448;2023-04-28T00:16:42;100524.78;;;13.60;nan
37238;BME280;23129;49.662;8.448;2023-04-28T00:19:12;100516.22;;;13.55;nan
37238;BME280;23129;49.662;8.448;2023-04-28T00:21:40;100513.75;;;13.51;nan
37238;BME280;23129;49.662;8.448;2023-04-28T00:24:09;100502.38;;;13.50;nan
37238;BME280;23129;49.662;8.448;2023-04-28T00:26:38;100502.38;;;13.50;nan
37238;BME280;23129;49.662;8.448;2023-04-28T00:29:06;100497.09;;;13.50;nan
37238;BME280;23129;49.662;8.448;2023-04-28T00:31:35;100493.53;;;13.51;nan
37238;BME280;23129;49.662;8.448;2023-04-28T00:34:04;100490.00;;;13.52;nan
37238;BME280;23129;49.662;8.448;2023-04-28T00:36:34;100494.34;;;13.53;nan
37238;BME280;23129;49.662;8.448;2023-04-28T00:39:02;100485.63;;;13.51;nan
37238;BME280;23129;49.662;8.448;2023-04-28T00:41:33;100482.13;;;13.51;nan
37238;BME280;23129;49.662;8.448;2023-04-28T00:44:01;100469.81;;;13.51;nan
37238;BME280;23129;49.662;8.448;2023-04-28T00:46:31;100467.19;;;13.51;nan
37238;BME280;23129;49.662;8.448;2023-04-28T00:49:01;100470.63;;;13.53;nan
37238;BME280;23129;49.662;8.448;2023-04-28T00:51:31;100454.72;;;13.55;nan
37238;BME280;23129;49.662;8.448;2023-04-28T00:54:02;100452.06;;;13.56;nan
37238;BME280;23129;49.662;8.448;2023-04-28T00:56:31;100442.44;;;13.55;nan
37238;BME280;23129;49.662;8.448;2023-04-28T00:58:59;100439.84;;;13.54;nan
37238;BME280;23129;49.662;8.448;2023-04-28T01:01:28;100440.78;;;13.53;nan
37238;BME280;23129;49.662;8.448;2023-04-28T01:03:57;100435.56;;;13.51;nan
37238;BME280;23129;49.662;8.448;2023-04-28T01:06:28;100435.69;;;13.48;nan
37238;BME280;23129;49.662;8.448;2023-04-28T01:09:00;100438.53;;;13.43;nan
37238;BME280;23129;49.662;8.448;2023-04-28T01:11:29;100435.13;;;13.40;nan
37238;BME280;23129;49.662;8.448;2023-04-28T01:14:09;100425.63;;;13.36;nan
37238;BME280;23129;49.662;8.448;2023-04-28T01:16:40;100425.63;;;13.36;nan
37238;BME280;23129;49.662;8.448;2023-04-28T01:19:16;100423.81;;;13.38;nan
37238;BME280;23129;49.662;8.448;2023-04-28T01:21:49;100418.66;;;13.35;nan
37238;BME280;23129;49.662;8.448;2023-04-28T01:24:21;100418.66;;;13.35;nan
37238;BME280;23129;49.662;8.448;2023-04-28T01:26:50;100426.69;;;13.32;nan
37238;BME280;23129;49.662;8.448;2023-04-28T01:29:19;100431.16;;;13.30;nan
37238;BME280;23129;49.662;8.448;2023-04-28T01:31:47;100427.59;;;13.31;nan
37238;BME280;23129;49.662;8.448;2023-04-28T01:34:17;100424.91;;;13.32;nan
37238;BME280;23129;49.662;8.448;2023-04-28T01:36:45;100420.50;;;13.33;nan
37238;BME280;23129;49.662;8.448;2023-04-28T01:39:14;100417.72;;;13.36;nan
37238;BME280;23129;49.662;8.448;2023-04-28T01:41:45;100420.25;;;13.39;nan
37238;BME280;23129;49.662;8.448;2023-04-28T01:44:15;100417.56;;;13.40;nan
37238;BME280;23129;49.662;8.448;2023-04-28T01:46:44;100416.69;;;13.40;nan
37238;BME280;23129;49.662;8.448;2023-04-28T01:49:13;100418.41;;;13.41;nan
37238;BME280;23129;49.662;8.448;2023-04-28T01:51:42;100424.59;;;13.40;nan
37238;BME280;23129;49.662;8.448;2023-04-28T01:54:10;100430.78;;;13.39;nan
37238;BME280;23129;49.662;8.448;2023-04-28T01:56:39;100430.78;;;13.39;nan
37238;BME280;23129;49.662;8.448;2023-04-28T01:59:10;100421.22;;;13.36;nan
37238;BME280;23129;49.662;8.448;2023-04-28T02:01:38;100412.53;;;13.34;nan
37238;BME280;23129;49.662;8.448;2023-04-28T02:04:07;100409.03;;;13.34;nan
37238;BME280;23129;49.662;8.448;2023-04-28T02:06:37;100398.44;;;13.35;nan
37238;BME280;23129;49.662;8.448;2023-04-28T02:09:06;100399.41;;;13.33;nan
37238;BME280;23129;49.662;8.448;2023-04-28T02:11:34;100405.63;;;13.32;nan
37238;BME280;23129;49.662;8.448;2023-04-28T02:14:03;100411.00;;;13.29;nan
37238;BME280;23129;49.662;8.448;2023-04-28T02:16:33;100408.38;;;13.29;nan
37238;BME280;23129;49.662;8.448;2023-04-28T02:19:02;100421.59;;;13.27;nan
37238;BME280;23129;49.662;8.448;2023-04-28T02:21:30;100428.63;;;13.27;nan
37238;BME280;23129;49.662;8.448;2023-04-28T02:23:59;100429.56;;;13.24;nan
37238;BME280;23129;49.662;8.448;2023-04-28T02:26:32;100433.06;;;13.24;nan
37238;BME280;23129;49.662;8.448;2023-04-28T02:29:00;100435.69;;;13.24;nan
37238;BME280;23129;49.662;8.448;2023-04-28T02:31:33;100429.56;;;13.26;nan
37238;BME280;23129;49.662;8.448;2023-04-28T02:34:01;100427.78;;;13.24;nan
37238;BME280;23129;49.662;8.448;2023-04-28T02:36:30;100419.97;;;13.23;nan
37238;BME280;23129;49.662;8.448;2023-04-28T02:39:00;100417.38;;;13.21;nan
37238;BME280;23129;49.662;8.448;2023-04-28T02:41:28;100420.00;;;13.21;nan
37238;BME280;23129;49.662;8.448;2023-04-28T02:43:58;100424.50;;;13.19;nan
37238;BME280;23129;49.662;8.448;2023-04-28T02:46:26;100419.34;;;13.16;nan
37238;BME280;23129;49.662;8.448;2023-04-28T02:48:58;100418.53;;;13.14;nan
37238;BME280;23129;49.662;8.448;2023-04-28T02:51:26;100421.31;;;13.11;nan
37238;BME280;23129;49.662;8.448;2023-04-28T02:53:55;100400.22;;;13.11;nan
37238;BME280;23129;49.662;8.448;2023-04-28T02:56:24;100400.22;;;13.11;nan
37238;BME280;23129;49.662;8.448;2023-04-28T02:58:52;100398.53;;;13.10;nan
37238;BME280;23129;49.662;8.448;2023-04-28T03:01:21;100394.16;;;13.09;nan
37238;BME280;23129;49.662;8.448;2023-04-28T03:03:50;100395.91;;;13.10;nan
37238;BME280;23129;49.662;8.448;2023-04-28T03:06:20;100398.63;;;13.07;nan
37238;BME280;23129;49.662;8.448;2023-04-28T03:08:49;100395.22;;;13.05;nan
37238;BME280;23129;49.662;8.448;2023-04-28T03:11:17;100390.91;;;13.02;nan
37238;BME280;23129;49.662;8.448;2023-04-28T03:13:45;100386.63;;;13.00;nan
37238;BME280;23129;49.662;8.448;2023-04-28T03:16:14;100386.69;;;12.98;nan
37238;BME280;23129;49.662;8.448;2023-04-28T03:18:43;100381.59;;;12.94;nan
37238;BME280;23129;49.662;8.448;2023-04-28T03:21:12;100383.50;;;12.90;nan
37238;BME280;23129;49.662;8.448;2023-04-28T03:23:41;100379.16;;;12.89;nan
37238;BME280;23129;49.662;8.448;2023-04-28T03:26:10;100376.56;;;12.88;nan
37238;BME280;23129;49.662;8.448;2023-04-28T03:28:39;100360.78;;;12.88;nan
37238;BME280;23129;49.662;8.448;2023-04-28T03:31:08;100349.31;;;12.89;nan
37238;BME280;23129;49.662;8.448;2023-04-28T03:33:36;100355.38;;;12.91;nan
37238;BME280;23129;49.662;8.448;2023-04-28T03:36:06;100356.31;;;12.90;nan
37238;BME280;23129;49.662;8.448;2023-04-28T03:38:34;100353.69;;;12.90;nan
37238;BME280;23129;49.662;8.448;2023-04-28T03:41:04;100357.16;;;12.90;nan
37238;BME280;23129;49.662;8.448;2023-04-28T03:43:59;100347.56;;;12.89;nan
37238;BME280;23129;49.662;8.448;2023-04-28T03:46:34;100348.41;;;12.90;nan
37238;BME280;23129;49.662;8.448;2023-04-28T03:49:03;100344.97;;;12.88;nan
37238;BME280;23129;49.662;8.448;2023-04-28T03:51:32;100349.44;;;12.86;nan
37238;BME280;23129;49.662;8.448;2023-04-28T03:54:01;100352.06;;;12.86;nan
37238;BME280;23129;49.662;8.448;2023-04-28T03:56:31;100348.53;;;12.87;nan
37238;BME280;23129;49.662;8.448;2023-04-28T03:59:02;100345.09;;;12.85;nan
37238;BME280;23129;49.662;8.448;2023-04-28T04:01:30;100350.38;;;12.85;nan
37238;BME280;23129;49.662;8.448;2023-04-28T04:03:59;100356.47;;;12.85;nan
37238;BME280;23129;49.662;8.448;2023-04-28T04:06:28;100356.47;;;12.85;nan
37238;BME280;23129;49.662;8.448;2023-04-28T04:08:57;100347.78;;;12.83;nan
37238;BME280;23129;49.662;8.448;2023-04-28T04:11:25;100348.66;;;12.84;nan
37238;BME280;23129;49.662;8.448;2023-04-28T04:13:55;100341.50;;;12.87;nan
37238;BME280;23129;49.662;8.448;2023-04-28T04:16:24;100337.19;;;12.85;nan
37238;BME280;23129;49.662;8.448;2023-04-28T04:18:55;100338.25;;;12.81;nan
37238;BME280;23129;49.662;8.448;2023-04-28T04:21:30;100329.53;;;12.78;nan
37238;BME280;23129;49.662;8.448;2023-04-28T04:24:00;100338.38;;;12.77;nan
37238;BME280;23129;49.662;8.448;2023-04-28T04:26:30;100342.75;;;12.77;nan
37238;BME280;23129;49.662;8.448;2023-04-28T04:29:00;100348.91;;;12.77;nan
37238;BME280;23129;49.662;8.448;2023-04-28T04:31:29;100331.25;;;12.79;nan
37238;BME280;23129;49.662;8.448;2023-04-28T04:33:58;100327.72;;;12.81;nan
37238;BME280;23129;49.662;8.448;2023-04-28T04:36:26;100329.41;;;12.82;nan
37238;BME280;23129;49.662;8.448;2023-04-28T04:38:56;100323.31;;;12.81;nan
37238;BME280;23129;49.662;8.448;2023-04-28T04:41:25;100325.13;;;12.79;nan
37238;BME280;23129;49.662;8.448;2023-04-28T04:44:12;100323.09;;;12.86;nan
37238;BME280;23129;49.662;8.448;2023-04-28T04:46:45;100317.88;;;12.62;nan
37238;BME280;23129;49.662;8.448;2023-04-28T04:49:17;100319.16;;;12.52;nan
37238;BME280;23129;49.662;8.448;2023-04-28T04:51:46;100325.69;;;12.42;nan
37238;BME280;23129;49.662;8.448;2023-04-28T04:54:15;100321.56;;;12.34;nan
37238;BME280;23129;49.662;8.448;2023-04-28T04:56:44;100321.75;;;12.30;nan
37238;BME280;23129;49.662;8.448;2023-04-28T04:59:19;100322.81;;;12.24;nan
37238;BME280;23129;49.662;8.448;2023-04-28T05:01:59;100323.09;;;12.17;nan
37238;BME280;23129;49.662;8.448;2023-04-28T05:04:28;100324.97;;;12.13;nan
37238;BME280;23129;49.662;8.448;2023-04-28T05:06:57;100318.13;;;12.09;nan
37238;BME280;23129;49.662;8.448;2023-04-28T05:09:27;100323.38;;;12.09;nan
37238;BME280;23129;49.662;8.448;2023-04-28T05:11:55;100317.31;;;12.07;nan
37238;BME280;23129;49.662;8.448;2023-04-28T05:14:25;100319.03;;;12.08;nan
37238;BME280;23129;49.662;8.448;2023-04-28T05:16:54;100316.38;;;12.08;nan
37238;BME280;23129;49.662;8.448;2023-04-28T05:19:26;100316.38;;;12.08;nan
37238;BME280;23129;49.662;8.448;2023-04-28T05:21:54;100311.13;;;12.08;nan
37238;BME280;23129;49.662;8.448;2023-04-28T05:24:23;100316.38;;;12.08;nan
37238;BME280;23129;49.662;8.448;2023-04-28T05:26:52;100317.19;;;12.10;nan
37238;BME280;23129;49.662;8.448;2023-04-28T05:29:21;100328.53;;;12.12;nan
37238;BME280;23129;49.662;8.448;2023-04-28T05:31:54;100321.31;;;12.17;nan
37238;BME280;23129;49.662;8.448;2023-04-28T05:34:24;100318.78;;;12.14;nan
37238;BME280;23129;49.662;8.448;2023-04-28T05:36:53;100318.00;;;12.12;nan
37238;BME280;23129;49.662;8.448;2023-04-28T05:39:24;100311.13;;;12.08;nan
37238;BME280;23129;49.662;8.448;2023-04-28T05:41:55;100320.88;;;12.06;nan
37238;BME280;23129;49.662;8.448;2023-04-28T05:44:25;100323.59;;;12.03;nan
37238;BME280;23129;49.662;8.448;2023-04-28T05:46:54;100321.09;;;12.00;nan
37238;BME280;23129;49.662;8.448;2023-04-28T05:49:26;100329.19;;;11.94;nan
37238;BME280;23129;49.662;8.448;2023-04-28T05:51:55;100331.13;;;11.88;nan
37238;BME280;23129;49.662;8.448;2023-04-28T05:54:24;100332.94;;;11.86;nan
37238;BME280;23129;49.662;8.448;2023-04-28T05:56:55;100329.47;;;11.84;nan
37238;BME280;23129;49.662;8.448;2023-04-28T05:59:25;100340.06;;;11.81;nan
37238;BME280;23129;49.662;8.448;2023-04-28T06:01:58;100341.84;;;11.81;nan
37238;BME280;23129;49.662;8.448;2023-04-28T06:04:27;100341.91;;;11.79;nan
37238;BME280;23129;49.662;8.448;2023-04-28T06:06:57;100344.53;;;11.79;nan
37238;BME280;23129;49.662;8.448;2023-04-28T06:09:26;100341.06;;;11.79;nan
37238;BME280;23129;49.662;8.448;2023-04-28T06:11:56;100340.06;;;11.81;nan
37238;BME280;23129;49.662;8.448;2023-04-28T06:14:25;100345.22;;;11.84;nan
37238;BME280;23129;49.662;8.448;2023-04-28T06:16:54;100333.78;;;11.87;nan
37238;BME280;23129;49.662;8.448;2023-04-28T06:19:24;100343.34;;;11.90;nan
37238;BME280;23129;49.662;8.448;2023-04-28T06:21:53;100337.34;;;11.86;nan
37238;BME280;23129;49.662;8.448;2023-04-28T06:24:22;100342.59;;;11.86;nan
37238;BME280;23129;49.662;8.448;2023-04-28T06:26:54;100341.63;;;11.88;nan
37238;BME280;23129;49.662;8.448;2023-04-28T06:29:24;100337.25;;;11.87;nan
37238;BME280;23129;49.662;8.448;2023-04-28T06:31:54;100345.22;;;11.84;nan
37238;BME280;23129;49.662;8.448;2023-04-28T06:34:26;100339.97;;;11.84;nan
37238;BME280;23129;49.662;8.448;2023-04-28T06:36:57;100351.28;;;11.88;nan
37238;BME280;23129;49.662;8.448;2023-04-28T06:39:26;100348.59;;;11.90;nan
37238;BME280;23129;49.662;8.448;2023-04-28T06:41:54;100339.91;;;11.87;nan
37238;BME280;23129;49.662;8.448;2023-04-28T06:44:26;100346.88;;;11.88;nan
37238;BME280;23129;49.662;8.448;2023-04-28T06:46:55;100347.63;;;11.92;nan
37238;BME280;23129;49.662;8.448;2023-04-28T06:49:25;100356.25;;;11.96;nan
37238;BME280;23129;49.662;8.448;2023-04-28T06:51:59;100349.28;;;11.95;nan
37238;BME280;23129;49.662;8.448;2023-04-28T06:54:29;100348.38;;;11.96;nan
37238;BME280;23129;49.662;8.448;2023-04-28T06:56:58;100348.34;;;11.97;nan
37238;BME280;23129;49.662;8.448;2023-04-28T06:59:27;100348.25;;;11.99;nan
37238;BME280;23129;49.662;8.448;2023-04-28T07:01:56;100342.91;;;12.02;nan
37238;BME280;23129;49.662;8.448;2023-04-28T07:04:26;100341.13;;;12.02;nan
37238;BME280;23129;49.662;8.448;2023-04-28T07:06:55;100344.63;;;12.03;nan
37238;BME280;23129;49.662;8.448;2023-04-28T07:09:24;100341.91;;;12.06;nan
37238;BME280;23129;49.662;8.448;2023-04-28T07:11:53;100340.00;;;12.09;nan
37238;BME280;23129;49.662;8.448;2023-04-28T07:14:21;100318.97;;;12.09;nan
37238;BME280;23129;49.662;8.448;2023-04-28T07:16:50;100331.91;;;12.16;nan
37238;BME280;23129;49.662;8.448;2023-04-28T07:19:19;100322.94;;;12.21;nan
37238;BME280;23129;49.662;8.448;2023-04-28T07:21:49;100324.53;;;12.25;nan
37238;BME280;23129;49.662;8.448;2023-04-28T07:24:17;100314.63;;;12.32;nan
37238;BME280;23129;49.662;8.448;2023-04-28T07:26:46;100321.44;;;12.38;nan
37238;BME280;23129;49.662;8.448;2023-04-28T07:29:15;100314.25;;;12.43;nan
37238;BME280;23129;49.662;8.448;2023-04-28T07:31:43;100309.78;;;12.45;nan
37238;BME280;23129;49.662;8.448;2023-04-28T07:34:12;100313.09;;;12.50;nan
37238;BME280;23129;49.662;8.448;2023-04-28T07:36:41;100316.41;;;12.55;nan
37238;BME280;23129;49.662;8.448;2023-04-28T07:39:11;100318.00;;;12.59;nan
37238;BME280;23129;49.662;8.448;2023-04-28T07:41:40;100317.09;;;12.60;nan
37238;BME280;23129;49.662;8.448;2023-04-28T07:44:09;100312.63;;;12.62;nan
37238;BME280;23129;49.662;8.448;2023-04-28T07:46:37;100311.53;;;12.68;nan
37238;BME280;23129;49.662;8.448;2023-04-28T07:49:06;100307.88;;;12.72;nan
37238;BME280;23129;49.662;8.448;2023-04-28T07:51:36;100314.56;;;12.81;nan
37238;BME280;23129;49.662;8.448;2023-04-28T07:54:04;100308.00;;;12.91;nan
37238;BME280;23129;49.662;8.448;2023-04-28T07:56:34;100307.50;;;13.03;nan
37238;BME280;23129;49.662;8.448;2023-04-28T07:59:03;100307.00;;;13.15;nan
37238;BME280;23129;49.662;8.448;2023-04-28T08:01:32;100313.75;;;13.22;nan
37238;BME280;23129;49.662;8.448;2023-04-28T08:04:00;100316.22;;;13.27;nan
37238;BME280;23129;49.662;8.448;2023-04-28T08:06:30;100309.00;;;13.32;nan
37238;BME280;23129;49.662;8.448;2023-04-28T08:08:59;100297.28;;;13.39;nan
37238;BME280;23129;49.662;8.448;2023-04-28T08:11:29;100290.84;;;13.46;nan
37238;BME280;23129;49.662;8.448;2023-04-28T08:13:59;100315.94;;;13.55;nan
37238;BME280;23129;49.662;8.448;2023-04-28T08:16:30;100323.59;;;13.61;nan
37238;BME280;23129;49.662;8.448;2023-04-28T08:18:59;100321.47;;;13.69;nan
37238;BME280;23129;49.662;8.448;2023-04-28T08:21:28;100319.38;;;13.78;nan
37238;BME280;23129;49.662;8.448;2023-04-28T08:23:56;100319.91;;;13.86;nan
37238;BME280;23129;49.662;8.448;2023-04-28T08:26:25;100312.53;;;13.94;nan
37238;BME280;23129;49.662;8.448;2023-04-28T08:28:54;100310.66;;;13.96;nan
37238;BME280;23129;49.662;8.448;2023-04-28T08:31:24;100323.50;;;14.04;nan
37238;BME280;23129;49.662;8.448;2023-04-28T08:33:53;100324.38;;;14.04;nan
37238;BME280;23129;49.662;8.448;2023-04-28T08:36:22;100327.53;;;14.12;nan
37238;BME280;23129;49.662;8.448;2023-04-28T08:38:51;100327.75;;;14.27;nan
37238;BME280;23129;49.662;8.448;2023-04-28T08:41:20;100339.59;;;14.37;nan
37238;BME280;23129;49.662;8.448;2023-04-28T08:43:49;100327.13;;;14.41;nan
37238;BME280;23129;49.662;8.448;2023-04-28T08:46:18;100322.69;;;14.41;nan
37238;BME280;23129;49.662;8.448;2023-04-28T08:48:49;100325.69;;;14.54;nan
37238;BME280;23129;49.662;8.448;2023-04-28T08:51:36;100325.72;;;14.71;nan
37238;BME280;23129;49.662;8.448;2023-04-28T08:54:08;100329.88;;;14.77;nan
37238;BME280;23129;49.662;8.448;2023-04-28T08:56:52;100336.44;;;14.87;nan
37238;BME280;23129;49.662;8.448;2023-04-28T08:59:21;100328.84;;;14.98;nan
37238;BME280;23129;49.662;8.448;2023-04-28T09:01:51;100324.84;;;15.09;nan
37238;BME280;23129;49.662;8.448;2023-04-28T09:04:21;100331.47;;;15.17;nan
37238;BME280;23129;49.662;8.448;2023-04-28T09:06:50;100330.03;;;15.29;nan
37238;BME280;23129;49.662;8.448;2023-04-28T09:09:21;100338.03;;;15.45;nan
37238;BME280;23129;49.662;8.448;2023-04-28T09:11:57;100336.31;;;15.61;nan
37238;BME280;23129;49.662;8.448;2023-04-28T09:14:28;100335.47;;;15.61;nan
37238;BME280;23129;49.662;8.448;2023-04-28T09:16:57;100334.56;;;15.62;nan
37238;BME280;23129;49.662;8.448;2023-04-28T09:19:34;100341.22;;;15.70;nan
37238;BME280;23129;49.662;8.448;2023-04-28T09:22:04;100337.97;;;15.64;nan
37238;BME280;23129;49.662;8.448;2023-04-28T09:24:50;100329.13;;;15.65;nan
37238;BME280;23129;49.662;8.448;2023-04-28T09:27:26;100332.41;;;15.70;nan
37238;BME280;23129;49.662;8.448;2023-04-28T09:29:56;100328.69;;;15.74;nan
37238;BME280;23129;49.662;8.448;2023-04-28T09:32:24;100322.28;;;15.78;nan
37238;BME280;23129;49.662;8.448;2023-04-28T09:34:56;100333.50;;;15.83;nan
37238;BME280;23129;49.662;8.448;2023-04-28T09:37:26;100335.88;;;15.88;nan
37238;BME280;23129;49.662;8.448;2023-04-28T09:40:02;100334.56;;;15.96;nan
37238;BME280;23129;49.662;8.448;2023-04-28T09:42:34;100339.84;;;15.96;nan
37238;BME280;23129;49.662;8.448;2023-04-28T09:45:03;100329.44;;;15.93;nan
37238;BME280;23129;49.662;8.448;2023-04-28T09:47:35;100327.56;;;15.95;nan
37238;BME280;23129;49.662;8.448;2023-04-28T09:50:07;100329.09;;;16.00;nan
37238;BME280;23129;49.662;8.448;2023-04-28T09:52:39;100330.69;;;16.04;nan
37238;BME280;23129;49.662;8.448;2023-04-28T09:55:09;100336.50;;;16.10;nan
37238;BME280;23129;49.662;8.448;2023-04-28T09:57:39;100335.16;;;16.19;nan
37238;BME280;23129;49.662;8.448;2023-04-28T10:00:10;100339.66;;;16.17;nan
37238;BME280;23129;49.662;8.448;2023-04-28T10:02:39;100333.59;;;16.15;nan
37238;BME280;23129;49.662;8.448;2023-04-28T10:05:11;100343.25;;;16.16;nan
37238;BME280;23129;49.662;8.448;2023-04-28T10:07:44;100329.47;;;16.09;nan
37238;BME280;23129;49.662;8.448;2023-04-28T10:10:12;100327.44;;;16.14;nan
37238;BME280;23129;49.662;8.448;2023-04-28T10:12:42;100329.53;;;16.25;nan
37238;BME280;23129;49.662;8.448;2023-04-28T10:15:12;100327.41;;;16.32;nan
37238;BME280;23129;49.662;8.448;2023-04-28T10:17:41;100331.69;;;16.34;nan
37238;BME280;23129;49.662;8.448;2023-04-28T10:20:13;100330.41;;;16.41;nan
37238;BME280;23129;49.662;8.448;2023-04-28T10:22:55;100327.38;;;16.49;nan
37238;BME280;23129;49.662;8.448;2023-04-28T10:25:28;100329.91;;;16.51;nan
37238;BME280;23129;49.662;8.448;2023-04-28T10:27:59;100329.34;;;16.46;nan
37238;BME280;23129;49.662;8.448;2023-04-28T10:30:28;100329.41;;;16.44;nan
37238;BME280;23129;49.662;8.448;2023-04-28T10:33:22;100329.41;;;16.44;nan
37238;BME280;23129;49.662;8.448;2023-04-28T10:35:54;100324.75;;;16.32;nan
37238;BME280;23129;49.662;8.448;2023-04-28T10:38:22;100320.81;;;16.23;nan
37238;BME280;23129;49.662;8.448;2023-04-28T10:40:52;100324.41;;;16.22;nan
37238;BME280;23129;49.662;8.448;2023-04-28T10:43:35;100315.69;;;16.20;nan
37238;BME280;23129;49.662;8.448;2023-04-28T10:46:07;100315.53;;;16.23;nan
37238;BME280;23129;49.662;8.448;2023-04-28T10:48:56;100313.50;;;16.44;nan
37238;BME280;23129;49.662;8.448;2023-04-28T10:51:30;100309.44;;;16.54;nan
37238;BME280;23129;49.662;8.448;2023-04-28T10:54:18;100319.25;;;16.68;nan
37238;BME280;23129;49.662;8.448;2023-04-28T10:57:20;100319.56;;;16.79;nan
37238;BME280;23129;49.662;8.448;2023-04-28T10:59:50;100321.72;;;16.71;nan
37238;BME280;23129;49.662;8.448;2023-04-28T11:02:38;100311.31;;;16.68;nan
37238;BME280;23129;49.662;8.448;2023-04-28T11:05:12;100312.00;;;16.56;nan
37238;BME280;23129;49.662;8.448;2023-04-28T11:11:14;100317.97;;;16.43;nan
37238;BME280;23129;49.662;8.448;2023-04-28T11:13:44;100310.50;;;16.34;nan
37238;BME280;23129;49.662;8.448;2023-04-28T11:16:15;100323.13;;;16.29;nan
37238;BME280;23129;49.662;8.448;2023-04-28T11:18:59;100330.22;;;16.29;nan
37238;BME280;23129;49.662;8.448;2023-04-28T11:21:32;100318.44;;;16.18;nan
37238;BME280;23129;49.662;8.448;2023-04-28T11:24:08;100314.31;;;16.13;nan
37238;BME280;23129;49.662;8.448;2023-04-28T11:26:39;100304.38;;;16.01;nan
37238;BME280;23129;49.662;8.448;2023-04-28T11:29:09;100312.81;;;15.91;nan
37238;BME280;23129;49.662;8.448;2023-04-28T11:31:38;100313.03;;;15.87;nan
37238;BME280;23129;49.662;8.448;2023-04-28T11:34:09;100307.03;;;15.83;nan
37238;BME280;23129;49.662;8.448;2023-04-28T11:36:41;100312.34;;;15.83;nan
37238;BME280;23129;49.662;8.448;2023-04-28T11:39:12;100316.63;;;15.86;nan
37238;BME280;23129;49.662;8.448;2023-04-28T11:41:43;100313.72;;;15.90;nan
37238;BME280;23129;49.662;8.448;2023-04-28T11:44:13;100317.00;;;15.95;nan
37238;BME280;23129;49.662;8.448;2023-04-28T11:46:45;100317.00;;;15.95;nan
37238;BME280;23129;49.662;8.448;2023-04-28T11:49:17;100310.16;;;15.91;nan
37238;BME280;23129;49.662;8.448;2023-04-28T11:51:47;100317.16;;;15.92;nan
37238;BME280;23129;49.662;8.448;2023-04-28T11:54:21;100309.66;;;16.01;nan
37238;BME280;23129;49.662;8.448;2023-04-28T11:56:52;100304.06;;;16.07;nan
37238;BME280;23129;49.662;8.448;2023-04-28T11:59:24;100307.28;;;16.12;nan
37238;BME280;23129;49.662;8.448;2023-04-28T12:01:55;100317.72;;;16.15;nan
37238;BME280;23129;49.662;8.448;2023-04-28T12:04:30;100313.03;;;16.20;nan
37238;BME280;23129;49.662;8.448;2023-04-28T12:07:05;100318.44;;;16.18;nan
37238;BME280;23129;49.662;8.448;2023-04-28T12:09:39;100317.88;;;16.12;nan
37238;BME280;23129;49.662;8.448;2023-04-28T12:12:11;100317.03;;;16.11;nan
37238;BME280;23129;49.662;8.448;2023-04-28T12:14:54;100322.25;;;16.13;nan
37238;BME280;23129;49.662;8.448;2023-04-28T12:17:24;100322.97;;;15.99;nan
37238;BME280;23129;49.662;8.448;2023-04-28T12:19:53;100324.13;;;15.93;nan
37238;BME280;23129;49.662;8.448;2023-04-28T12:22:22;100319.84;;;15.91;nan
37238;BME280;23129;49.662;8.448;2023-04-28T12:25:07;100319.47;;;15.98;nan
37238;BME280;23129;49.662;8.448;2023-04-28T12:27:36;100318.09;;;15.91;nan
37238;BME280;23129;49.662;8.448;2023-04-28T12:30:25;100317.78;;;15.97;nan
37238;BME280;23129;49.662;8.448;2023-04-28T12:32:54;100311.69;;;15.95;nan
37238;BME280;23129;49.662;8.448;2023-04-28T12:35:24;100323.50;;;16.06;nan
37238;BME280;23129;49.662;8.448;2023-04-28T12:37:54;100324.75;;;16.16;nan
37238;BME280;23129;49.662;8.448;2023-04-28T12:40:25;100320.03;;;16.21;nan
37238;BME280;23129;49.662;8.448;2023-04-28T12:42:54;100318.28;;;16.22;nan
37238;BME280;23129;49.662;8.448;2023-04-28T12:45:23;100310.41;;;16.20;nan
37238;BME280;23129;49.662;8.448;2023-04-28T12:47:52;100327.13;;;16.20;nan
37238;BME280;23129;49.662;8.448;2023-04-28T12:50:21;100309.44;;;16.21;nan
37238;BME280;23129;49.662;8.448;2023-04-28T12:52:50;100288.38;;;16.19;nan
37238;BME280;23129;49.662;8.448;2023-04-28T12:55:19;100286.41;;;16.23;nan
37238;BME280;23129;49.662;8.448;2023-04-28T12:57:48;100294.03;;;16.29;nan
37238;BME280;23129;49.662;8.448;2023-04-28T13:00:18;100308.81;;;16.33;nan
37238;BME280;23129;49.662;8.448;2023-04-28T13:02:50;100307.69;;;16.37;nan
37238;BME280;23129;49.662;8.448;2023-04-28T13:05:19;100313.00;;;16.37;nan
37238;BME280;23129;49.662;8.448;2023-04-28T13:07:48;100316.44;;;16.39;nan
37238;BME280;23129;49.662;8.448;2023-04-28T13:10:17;100300.53;;;16.39;nan
37238;BME280;23129;49.662;8.448;2023-04-28T13:12:48;100300.72;;;16.36;nan
37238;BME280;23129;49.662;8.448;2023-04-28T13:15:17;100301.78;;;16.32;nan
37238;BME280;23129;49.662;8.448;2023-04-28T13:17:47;100293.00;;;16.32;nan
37238;BME280;23129;49.662;8.448;2023-04-28T13:20:16;100286.84;;;16.31;nan
37238;BME280;23129;49.662;8.448;2023-04-28T13:22:44;100288.88;;;16.26;nan
37238;BME280;23129;49.662;8.448;2023-04-28T13:25:13;100287.19;;;16.25;nan
37238;BME280;23129;49.662;8.448;2023-04-28T13:27:42;100286.25;;;16.26;nan
37238;BME280;23129;49.662;8.448;2023-04-28T13:30:13;100283.59;;;16.26;nan
37238;BME280;23129;49.662;8.448;2023-04-28T13:32:41;100284.53;;;16.25;nan